createdAt,value
2017-10-07T05:52:29.559Z,84.60
2017-10-07T05:54:57.047Z,84.60
2017-10-07T05:57:25.291Z,84.80
2017-10-07T05:59:52.751Z,84.80
2017-10-07T06:02:21.040Z,84.80
2017-10-07T06:04:49.511Z,84.80
2017-10-07T06:07:16.983Z,85.70
2017-10-07T06:09:44.459Z,84.10
2017-10-07T06:12:12.730Z,83.70
2017-10-07T06:14:40.992Z,83.50
2017-10-07T06:17:08.462Z,83.50
2017-10-07T06:19:36.707Z,83.70
2017-10-07T06:22:04.221Z,83.70
2017-10-07T06:24:31.722Z,84.00
2017-10-07T06:26:59.207Z,84.10
2017-10-07T06:29:27.444Z,83.40
2017-10-07T06:31:54.946Z,83.30
2017-10-07T06:34:22.421Z,83.70
2017-10-07T06:36:50.700Z,83.90
2017-10-07T06:39:18.931Z,83.80
2017-10-07T06:41:46.451Z,83.80
2017-10-07T06:44:13.914Z,83.90
2017-10-07T06:46:41.404Z,84.10
2017-10-07T06:49:08.903Z,84.50
2017-10-07T06:51:37.127Z,84.80
2017-10-07T06:54:04.623Z,84.80
2017-10-07T06:56:32.097Z,84.50
2017-10-07T06:59:00.360Z,85.00
2017-10-07T07:01:27.831Z,85.10
2017-10-07T07:03:56.129Z,84.10
2017-10-07T07:06:23.622Z,84.10
2017-10-07T07:08:51.092Z,84.40
2017-10-07T07:11:18.575Z,84.70
2017-10-07T07:13:46.823Z,83.90
2017-10-07T07:16:14.304Z,83.90
2017-10-07T07:18:41.800Z,84.50
2017-10-07T07:21:09.283Z,83.90
2017-10-07T07:23:36.794Z,83.90
2017-10-07T07:26:05.027Z,83.00
2017-10-07T07:28:32.575Z,83.00
2017-10-07T07:31:00.039Z,82.80
2017-10-07T07:33:27.523Z,82.90
2017-10-07T07:35:55.011Z,82.60
2017-10-07T07:38:22.491Z,81.80
2017-10-07T07:40:49.986Z,82.30
2017-10-07T07:43:17.471Z,82.50
2017-10-07T07:45:44.970Z,82.50
2017-10-07T07:48:12.449Z,82.80
2017-10-07T07:50:39.971Z,80.20
2017-10-07T07:53:07.450Z,81.80
2017-10-07T07:55:34.929Z,80.10
2017-10-07T07:58:02.407Z,80.10
2017-10-07T08:00:31.395Z,80.30
2017-10-07T08:02:58.910Z,80.40
2017-10-07T08:05:26.383Z,79.60
2017-10-07T08:07:53.949Z,79.20
2017-10-07T08:10:21.412Z,79.40
2017-10-07T08:12:48.875Z,79.50
2017-10-07T08:15:16.368Z,77.90
2017-10-07T08:17:44.595Z,77.50
2017-10-07T08:20:12.292Z,77.60
2017-10-07T08:22:40.660Z,79.70
2017-10-07T08:25:08.170Z,79.70
2017-10-07T08:27:35.647Z,77.70
2017-10-07T08:30:03.135Z,74.90
2017-10-07T08:32:30.614Z,76.10
2017-10-07T08:34:58.165Z,76.80
2017-10-07T08:37:25.630Z,75.30
2017-10-07T08:39:53.150Z,75.20
2017-10-07T08:42:20.628Z,72.70
2017-10-07T08:44:48.131Z,72.70
2017-10-07T08:47:16.367Z,70.20
2017-10-07T08:49:43.849Z,70.10
2017-10-07T08:52:12.110Z,71.90
2017-10-07T08:54:39.594Z,71.80
2017-10-07T08:57:07.862Z,70.20
2017-10-07T08:59:36.116Z,71.10
2017-10-07T09:02:03.615Z,71.10
2017-10-07T09:04:31.127Z,73.20
2017-10-07T09:06:58.603Z,70.00
2017-10-07T09:09:26.117Z,70.40
2017-10-07T09:11:53.599Z,68.90
2017-10-07T09:14:21.115Z,69.90
2017-10-07T09:16:48.606Z,68.00
2017-10-07T09:19:16.105Z,68.40
2017-10-07T09:21:44.340Z,67.90
2017-10-07T09:24:11.831Z,67.90
2017-10-07T09:26:39.366Z,66.70
2017-10-07T09:29:06.847Z,68.20
2017-10-07T09:31:34.346Z,67.60
2017-10-07T09:34:01.831Z,65.80
2017-10-07T09:36:29.345Z,66.40
2017-10-07T09:38:57.583Z,67.10
2017-10-07T09:41:25.794Z,67.00
2017-10-07T09:43:54.078Z,65.00
2017-10-07T09:46:22.347Z,65.10
2017-10-07T09:48:50.610Z,64.40
2017-10-07T09:51:18.136Z,64.40
2017-10-07T09:53:45.635Z,63.70
2017-10-07T09:56:13.870Z,64.30
2017-10-07T09:58:41.403Z,64.30
2017-10-07T10:01:08.889Z,64.80
2017-10-07T10:03:36.364Z,63.60
2017-10-07T10:06:04.861Z,63.70
2017-10-07T10:08:32.383Z,62.80
2017-10-07T10:10:59.927Z,61.30
2017-10-07T10:13:27.439Z,62.30
2017-10-07T10:15:54.968Z,63.70
2017-10-07T10:18:22.441Z,62.30
2017-10-07T10:20:49.967Z,63.00
2017-10-07T10:23:17.435Z,63.10
2017-10-07T10:25:44.944Z,63.70
2017-10-07T10:28:14.294Z,62.60
2017-10-07T10:30:42.443Z,63.40
2017-10-07T10:33:10.021Z,63.60
2017-10-07T10:35:37.496Z,63.60
2017-10-07T10:38:05.012Z,62.10
2017-10-07T10:40:33.268Z,62.10
2017-10-07T10:43:00.764Z,62.10
2017-10-07T10:45:28.242Z,62.00
2017-10-07T10:47:55.724Z,61.10
2017-10-07T10:50:23.210Z,53.80
2017-10-07T10:52:52.459Z,58.10
2017-10-07T10:55:19.982Z,57.30
2017-10-07T10:57:48.217Z,55.40
2017-10-07T11:00:15.679Z,55.40
2017-10-07T11:02:43.192Z,57.20
2017-10-07T11:05:10.670Z,60.10
2017-10-07T11:07:38.172Z,60.00
2017-10-07T11:10:05.649Z,58.00
2017-10-07T11:12:33.885Z,48.50
2017-10-07T11:15:01.383Z,48.20
2017-10-07T11:17:29.624Z,47.90
2017-10-07T11:19:57.099Z,47.90
2017-10-07T11:22:24.612Z,40.50
2017-10-07T11:24:52.098Z,33.40
2017-10-07T11:27:19.607Z,33.70
2017-10-07T11:29:47.090Z,30.30
2017-10-07T11:32:14.619Z,30.00
2017-10-07T11:34:42.888Z,28.60
2017-10-07T11:37:11.113Z,29.70
2017-10-07T11:39:38.612Z,29.70
2017-10-07T11:42:06.087Z,29.00
2017-10-07T11:44:33.631Z,28.70
2017-10-07T11:47:01.086Z,28.70
2017-10-07T11:49:29.615Z,28.80
2017-10-07T11:51:57.137Z,27.50
2017-10-07T11:54:25.388Z,27.80
2017-10-07T11:56:52.898Z,27.80
2017-10-07T11:59:20.368Z,27.50
2017-10-07T12:01:47.872Z,26.50
2017-10-07T12:04:15.346Z,26.70
2017-10-07T12:06:43.649Z,26.50
2017-10-07T12:09:11.123Z,26.50
2017-10-07T12:11:38.616Z,26.70
2017-10-07T12:14:06.105Z,27.00
2017-10-07T12:16:34.323Z,26.90
2017-10-07T12:19:01.818Z,26.90
2017-10-07T12:21:30.080Z,26.90
2017-10-07T12:23:58.164Z,26.80
2017-10-07T12:26:25.688Z,26.90
2017-10-07T12:28:53.158Z,26.20
2017-10-07T12:31:20.618Z,26.60
2017-10-07T12:33:48.139Z,26.70
2017-10-07T12:36:15.591Z,25.90
2017-10-07T12:38:43.110Z,26.20
2017-10-07T12:41:12.138Z,26.60
2017-10-07T12:43:39.600Z,26.60
2017-10-07T12:46:07.861Z,27.10
2017-10-07T12:48:36.100Z,26.90
2017-10-07T12:51:03.610Z,26.70
2017-10-07T12:53:31.883Z,25.40
2017-10-07T12:56:00.160Z,26.10
2017-10-07T12:58:28.389Z,26.10
2017-10-07T13:00:55.874Z,26.10
2017-10-07T13:03:23.372Z,25.30
2017-10-07T13:05:50.835Z,25.00
2017-10-07T13:08:18.335Z,25.10
2017-10-07T13:10:45.800Z,25.20
2017-10-07T13:13:13.277Z,24.90
2017-10-07T13:15:41.560Z,25.30
2017-10-07T13:18:09.823Z,25.30
2017-10-07T13:20:37.336Z,25.00
2017-10-07T13:23:04.836Z,25.70
2017-10-07T13:25:32.299Z,25.30
2017-10-07T13:27:59.799Z,25.70
2017-10-07T13:30:27.287Z,25.70
2017-10-07T13:32:54.774Z,25.30
2017-10-07T13:35:23.044Z,25.40
2017-10-07T13:37:50.541Z,25.40
2017-10-07T13:40:18.829Z,24.90
2017-10-07T13:42:46.322Z,24.70
2017-10-07T13:45:13.779Z,24.70
2017-10-07T13:47:41.298Z,25.20
2017-10-07T13:50:08.751Z,25.10
2017-10-07T13:52:36.238Z,24.80
2017-10-07T13:55:03.740Z,25.20
2017-10-07T13:57:31.268Z,25.10
2017-10-07T13:59:58.813Z,25.30
2017-10-07T14:02:26.294Z,24.90
2017-10-07T14:04:53.796Z,25.10
2017-10-07T14:07:22.035Z,25.40
2017-10-07T14:09:49.538Z,25.40
2017-10-07T14:12:17.796Z,25.40
2017-10-07T14:14:46.058Z,25.70
2017-10-07T14:17:13.543Z,25.40
2017-10-07T14:19:41.807Z,25.40
2017-10-07T14:22:09.282Z,25.40
2017-10-07T14:24:37.551Z,26.00
2017-10-07T14:27:05.800Z,25.90
2017-10-07T14:29:33.312Z,25.90
2017-10-07T14:32:00.836Z,25.90
2017-10-07T14:34:28.340Z,26.10
2017-10-07T14:36:55.842Z,26.50
2017-10-07T14:39:23.345Z,25.70
2017-10-07T14:41:50.827Z,25.80
2017-10-07T14:44:18.359Z,26.30
2017-10-07T14:46:45.864Z,26.10
2017-10-07T14:49:13.332Z,26.10
2017-10-07T14:51:40.951Z,26.10
2017-10-07T14:54:08.444Z,26.60
2017-10-07T14:56:36.735Z,28.30
2017-10-07T14:59:04.251Z,26.50
2017-10-07T15:01:31.732Z,26.60
2017-10-07T15:03:59.235Z,27.40
2017-10-07T15:06:27.512Z,26.60
2017-10-07T15:08:55.786Z,26.30
2017-10-07T15:11:24.018Z,26.10
2017-10-07T15:13:51.553Z,26.10
2017-10-07T15:16:19.056Z,26.50
2017-10-07T15:18:46.550Z,26.40
2017-10-07T15:21:14.855Z,26.60
2017-10-07T15:23:42.334Z,26.60
2017-10-07T15:26:09.829Z,26.40
2017-10-07T15:28:37.302Z,26.20
2017-10-07T15:31:04.812Z,26.30
2017-10-07T15:33:32.272Z,26.50
2017-10-07T15:35:59.767Z,26.60
2017-10-07T15:38:27.991Z,26.80
2017-10-07T15:40:55.478Z,26.80
2017-10-07T15:43:23.028Z,26.50
2017-10-07T15:45:50.495Z,26.40
2017-10-07T15:51:22.169Z,26.40
2017-10-07T15:53:49.707Z,26.50
2017-10-07T15:56:17.202Z,26.50
2017-10-07T15:58:44.666Z,26.40
2017-10-07T16:01:12.930Z,26.30
2017-10-07T16:03:40.452Z,26.20
2017-10-07T16:06:07.961Z,26.10
2017-10-07T16:08:36.401Z,26.10
2017-10-07T16:11:04.896Z,26.40
2017-10-07T16:13:32.397Z,26.30
2017-10-07T16:16:00.643Z,26.90
2017-10-07T16:18:28.141Z,26.90
2017-10-07T16:20:55.603Z,28.00
2017-10-07T16:23:23.104Z,28.10
2017-10-07T16:25:50.579Z,28.20
2017-10-07T16:28:18.068Z,36.20
2017-10-07T16:30:46.320Z,35.40
2017-10-07T16:33:13.867Z,35.40
2017-10-07T16:35:41.343Z,34.30
2017-10-07T16:38:09.598Z,42.60
2017-10-07T16:40:37.100Z,42.60
2017-10-07T16:43:04.580Z,49.20
2017-10-07T16:45:32.072Z,52.50
2017-10-07T16:47:59.572Z,43.60
2017-10-07T16:50:27.842Z,40.30
2017-10-07T16:52:56.108Z,42.50
2017-10-07T16:55:23.600Z,42.50
2017-10-07T16:57:51.119Z,46.90
2017-10-07T17:00:18.624Z,52.50
2017-10-07T17:02:46.130Z,56.20
2017-10-07T17:05:13.647Z,59.00
2017-10-07T17:07:41.115Z,66.10
2017-10-07T17:10:08.587Z,65.60
2017-10-07T17:12:36.107Z,79.80
2017-10-07T17:15:03.685Z,82.00
2017-10-07T17:17:31.149Z,82.10
2017-10-07T17:19:58.668Z,72.00
2017-10-07T17:22:26.928Z,72.60
2017-10-07T17:24:54.418Z,72.70
2017-10-07T17:27:21.888Z,76.10
2017-10-07T17:29:49.416Z,69.90
2017-10-07T17:32:16.899Z,72.30
2017-10-07T17:34:44.387Z,72.20
2017-10-07T17:37:11.884Z,65.40
2017-10-07T17:39:39.367Z,65.80
2017-10-07T17:42:06.859Z,67.90
2017-10-07T17:44:34.371Z,68.10
2017-10-07T17:47:02.626Z,67.90
2017-10-07T17:49:30.108Z,67.90
2017-10-07T17:51:58.416Z,68.00
2017-10-07T17:54:25.889Z,68.00
2017-10-07T17:56:53.373Z,71.80
2017-10-07T17:59:20.848Z,70.30
2017-10-07T18:01:49.119Z,69.60
2017-10-07T18:04:18.322Z,69.60
2017-10-07T18:06:45.782Z,69.60
2017-10-07T18:09:13.294Z,69.50
2017-10-07T18:11:40.759Z,70.30
2017-10-07T18:14:08.279Z,70.00
2017-10-07T18:16:36.502Z,69.70
2017-10-07T18:19:03.984Z,69.70
2017-10-07T18:21:31.516Z,69.60
2017-10-07T18:23:59.024Z,69.10
2017-10-07T18:26:27.294Z,69.90
2017-10-07T18:28:55.574Z,70.00
2017-10-07T18:31:23.829Z,70.90
2017-10-07T18:33:56.056Z,70.90
2017-10-07T18:36:25.687Z,70.20
2017-10-07T18:38:55.487Z,70.60
2017-10-07T18:41:22.978Z,70.70
2017-10-07T18:43:50.461Z,70.70
2017-10-07T18:46:19.593Z,71.30
2017-10-07T18:48:47.064Z,71.30
2017-10-07T18:51:14.538Z,71.40
2017-10-07T18:53:43.201Z,70.50
2017-10-07T18:56:10.679Z,71.80
2017-10-07T18:58:38.251Z,71.30
2017-10-07T19:01:06.040Z,72.70
2017-10-07T19:03:34.399Z,71.50
2017-10-07T19:06:01.936Z,71.50
2017-10-07T19:08:29.460Z,72.00
2017-10-07T19:10:57.087Z,72.70
2017-10-07T19:13:25.618Z,72.80
2017-10-07T19:15:53.307Z,72.80
2017-10-07T19:18:22.520Z,72.60
2017-10-07T19:20:51.185Z,72.70
2017-10-07T19:23:21.755Z,72.70
2017-10-07T19:25:55.095Z,72.50
2017-10-07T19:28:23.373Z,71.90
2017-10-07T19:30:51.693Z,72.30
2017-10-07T19:33:20.210Z,72.60
2017-10-07T19:35:47.890Z,72.60
2017-10-07T19:38:15.642Z,73.40
2017-10-07T19:40:43.294Z,73.80
2017-10-07T19:43:10.989Z,73.50
2017-10-07T19:45:38.630Z,73.30
2017-10-07T19:48:06.328Z,73.50
2017-10-07T19:50:34.000Z,72.00
2017-10-07T19:53:01.557Z,69.70
2017-10-07T19:55:29.170Z,69.10
2017-10-07T19:57:56.816Z,67.10
2017-10-07T20:00:25.435Z,68.20
2017-10-07T20:02:52.916Z,68.20
2017-10-07T20:05:20.387Z,68.50
2017-10-07T20:07:47.879Z,67.10
2017-10-07T20:10:15.978Z,65.00
2017-10-07T20:12:44.243Z,65.50
2017-10-07T20:15:12.503Z,64.30
2017-10-07T20:17:40.747Z,64.70
2017-10-07T20:20:08.203Z,64.60
2017-10-07T20:22:35.696Z,63.20
2017-10-07T20:25:03.168Z,63.30
2017-10-07T20:27:31.459Z,62.30
2017-10-07T20:29:58.921Z,62.30
2017-10-07T20:32:26.395Z,61.50
2017-10-07T20:34:53.910Z,61.40
2017-10-07T20:37:22.201Z,61.40
2017-10-07T20:39:50.475Z,61.00
2017-10-07T20:42:18.707Z,61.10
2017-10-07T20:44:46.219Z,61.10
2017-10-07T20:47:13.696Z,61.50
2017-10-07T20:49:41.221Z,62.10
2017-10-07T20:52:09.497Z,63.20
2017-10-07T20:54:37.783Z,64.00
2017-10-07T20:57:05.253Z,64.00
2017-10-07T20:59:32.731Z,64.60
2017-10-07T21:02:00.246Z,63.70
2017-10-07T21:04:27.716Z,63.80
2017-10-07T21:06:55.995Z,65.30
2017-10-07T21:09:23.489Z,65.30
2017-10-07T21:11:51.010Z,65.10
2017-10-07T21:14:19.249Z,66.00
2017-10-07T21:16:46.756Z,65.90
2017-10-07T21:19:14.976Z,68.10
2017-10-07T21:21:42.455Z,68.10
2017-10-07T21:24:10.389Z,69.60
2017-10-07T21:26:37.854Z,71.40
2017-10-07T21:29:05.326Z,71.90
2017-10-07T21:31:32.849Z,73.40
2017-10-07T21:34:00.355Z,73.10
2017-10-07T21:36:27.858Z,74.40
2017-10-07T21:38:55.323Z,75.00
2017-10-07T21:41:22.839Z,75.80
2017-10-07T21:43:50.329Z,77.90
2017-10-07T21:46:18.579Z,79.40
2017-10-07T21:48:46.094Z,79.40
2017-10-07T21:51:13.576Z,79.30
2017-10-07T21:53:41.076Z,79.90
2017-10-07T21:56:09.311Z,80.10
2017-10-07T21:58:36.801Z,80.10
2017-10-07T22:01:05.037Z,80.80
2017-10-07T22:03:32.531Z,80.80
2017-10-07T22:06:00.763Z,79.20
2017-10-07T22:08:28.292Z,79.20
2017-10-07T22:10:56.540Z,77.70
2017-10-07T22:13:24.047Z,77.70
2017-10-07T22:15:51.546Z,77.20
2017-10-07T22:18:19.038Z,77.40
2017-10-07T22:20:46.503Z,80.20
2017-10-07T22:23:14.079Z,79.00
2017-10-07T22:25:41.543Z,79.00
2017-10-07T22:28:09.031Z,80.30
2017-10-07T22:30:36.518Z,80.90
2017-10-07T22:33:04.751Z,81.50
2017-10-07T22:35:32.239Z,81.50
2017-10-07T22:37:59.729Z,81.80
2017-10-07T22:40:27.995Z,82.60
2017-10-07T22:42:56.239Z,82.40
2017-10-07T22:45:23.718Z,82.40
2017-10-07T22:47:51.185Z,82.60
2017-10-07T22:50:19.431Z,82.60
2017-10-07T22:52:46.899Z,82.60
2017-10-07T22:55:14.417Z,82.60
2017-10-07T22:57:41.877Z,82.20
2017-10-07T23:00:09.466Z,82.60
2017-10-07T23:02:36.935Z,82.80
2017-10-07T23:05:04.451Z,82.50
2017-10-07T23:07:31.937Z,82.70
2017-10-07T23:09:59.422Z,82.50
2017-10-07T23:12:27.700Z,82.60
2017-10-07T23:14:55.178Z,82.60
2017-10-07T23:17:23.280Z,82.30
2017-10-07T23:19:50.761Z,81.80
2017-10-07T23:22:29.959Z,81.70
2017-10-07T23:24:57.463Z,81.10
2017-10-07T23:27:24.943Z,81.00
2017-10-07T23:29:52.447Z,80.80
2017-10-07T23:32:19.915Z,81.60
2017-10-07T23:34:47.423Z,81.70
2017-10-07T23:37:15.678Z,81.80
2017-10-07T23:39:43.184Z,81.80
2017-10-07T23:42:10.692Z,82.10
2017-10-07T23:44:38.177Z,81.90
2017-10-07T23:47:06.419Z,82.30
2017-10-07T23:49:33.877Z,82.30
2017-10-07T23:52:01.355Z,82.20
2017-10-07T23:54:28.845Z,82.30
2017-10-07T23:56:56.336Z,82.40
2017-10-07T23:59:23.790Z,81.40
